Terminal Aerodrome Forecast
Issued by NWS

Home | Current Version | Previous Version | Text Only | Print | Product List | Glossary On
Versions: 1 2 3 4 5 6 7 8 9 10 11 12 13 14 15 16 17 18 19
000
FTUS46 KPDT 100522
TAFYKM
TAF
KYKM 100522Z 1006/1106 26005KT 5SM -SHSN BR SCT020 OVC040
      TEMPO 1006/1009 -FZRA
     FM101000 27006KT 5SM -SHSN BR SCT020 OVC040
     FM101500 23007KT P6SM BKN045=

USA.gov is the U.S. government's official web portal to all federal, state and local government web resources and services.